createdAt,value
2023-02-22T00:00:20.938Z,16.10
2023-02-22T00:02:47.478Z,16.30
2023-02-22T00:05:15.608Z,16.40
2023-02-22T00:07:43.792Z,16.33
2023-02-22T00:10:10.846Z,15.95
2023-02-22T00:12:37.376Z,16.56
2023-02-22T00:15:04.020Z,16.42
2023-02-22T00:17:30.533Z,15.65
2023-02-22T00:19:58.261Z,16.22
2023-02-22T00:22:24.736Z,15.55
2023-02-22T00:24:51.230Z,16.29
2023-02-22T00:27:17.793Z,16.15
2023-02-22T00:29:46.005Z,16.54
2023-02-22T00:32:15.741Z,16.25
2023-02-22T00:34:42.359Z,16.17
2023-02-22T00:37:10.662Z,16.27
2023-02-22T00:39:37.183Z,16.41
2023-02-22T00:42:03.887Z,16.07
2023-02-22T00:44:46.184Z,15.98
2023-02-22T00:47:12.924Z,15.69
2023-02-22T00:49:39.497Z,16.32
2023-02-22T00:52:06.510Z,16.00
2023-02-22T00:54:33.162Z,15.78
2023-02-22T00:56:59.950Z,15.83
2023-02-22T00:59:26.509Z,15.50
2023-02-22T01:01:53.588Z,15.70
2023-02-22T01:04:23.271Z,15.77
2023-02-22T01:06:49.983Z,15.61
2023-02-22T01:09:16.505Z,15.62
2023-02-22T01:11:43.115Z,15.29
2023-02-22T01:14:09.674Z,15.63
2023-02-22T01:16:36.382Z,15.33
2023-02-22T01:19:02.990Z,15.44
2023-02-22T01:21:29.522Z,15.44
2023-02-22T01:23:56.060Z,15.32
2023-02-22T01:26:22.647Z,15.56
2023-02-22T01:28:49.214Z,14.88
2023-02-22T01:31:16.119Z,14.86
2023-02-22T01:33:43.079Z,14.76
2023-02-22T01:36:09.687Z,14.69
2023-02-22T01:38:36.338Z,14.21
2023-02-22T01:41:05.109Z,14.29
2023-02-22T01:43:32.933Z,14.40
2023-02-22T01:46:18.138Z,14.61
2023-02-22T01:49:00.475Z,13.93
2023-02-22T01:51:33.732Z,14.29
2023-02-22T01:54:07.823Z,14.00
2023-02-22T01:56:39.413Z,14.15
2023-02-22T01:59:10.416Z,15.34
2023-02-22T02:01:39.561Z,15.07
2023-02-22T02:04:12.912Z,14.21
2023-02-22T02:06:40.008Z,14.15
2023-02-22T02:09:47.813Z,14.53
2023-02-22T02:12:17.203Z,13.82
2023-02-22T02:14:44.507Z,13.91
2023-02-22T02:17:20.977Z,13.71
2023-02-22T02:20:26.599Z,13.83
2023-02-22T02:23:47.082Z,13.21
2023-02-22T02:26:28.536Z,13.51
2023-02-22T02:29:37.080Z,13.35
2023-02-22T02:32:32.090Z,13.57
2023-02-22T02:35:24.771Z,13.08
2023-02-22T02:38:09.929Z,12.94
2023-02-22T02:40:49.070Z,13.37
2023-02-22T02:43:51.297Z,12.86
2023-02-22T02:46:32.497Z,12.67
2023-02-22T02:49:06.303Z,13.17
2023-02-22T02:51:39.779Z,13.19
2023-02-22T02:54:09.020Z,13.06
2023-02-22T02:56:35.830Z,13.13
2023-02-22T02:59:02.540Z,13.06
2023-02-22T03:01:40.987Z,13.43
2023-02-22T03:04:10.461Z,13.63
2023-02-22T03:07:09.287Z,13.10
2023-02-22T03:09:51.173Z,12.88
2023-02-22T03:12:30.290Z,12.26
2023-02-22T03:15:34.183Z,12.34
2023-02-22T03:18:09.231Z,12.75
2023-02-22T03:20:57.679Z,13.02
2023-02-22T03:23:33.185Z,12.30
2023-02-22T03:26:13.644Z,12.45
2023-02-22T03:28:43.973Z,11.63
2023-02-22T03:31:17.294Z,11.42
2023-02-22T03:34:00.162Z,11.75
2023-02-22T03:36:32.208Z,11.61
2023-02-22T03:39:02.088Z,11.29
2023-02-22T03:41:33.458Z,11.66
2023-02-22T03:44:11.411Z,11.04
2023-02-22T03:46:45.042Z,10.88
2023-02-22T03:49:26.656Z,10.75
2023-02-22T03:51:53.509Z,10.56
2023-02-22T03:54:20.004Z,11.05
2023-02-22T03:56:55.834Z,10.87
2023-02-22T03:59:24.383Z,11.20
2023-02-22T04:01:51.496Z,10.65
2023-02-22T04:04:18.128Z,10.45
2023-02-22T04:06:45.184Z,10.69
2023-02-22T04:09:11.703Z,10.44
2023-02-22T04:11:38.193Z,10.42
2023-02-22T04:14:04.669Z,10.65
2023-02-22T04:16:31.234Z,10.30
2023-02-22T04:18:57.939Z,10.33
2023-02-22T04:21:24.480Z,9.96
2023-02-22T04:23:51.954Z,10.38
2023-02-22T04:26:18.708Z,10.33
2023-02-22T04:28:45.174Z,10.56
2023-02-22T04:31:11.747Z,10.57
2023-02-22T04:33:38.330Z,11.15
2023-02-22T04:36:05.132Z,11.35
2023-02-22T04:38:31.785Z,10.70
2023-02-22T04:40:58.329Z,10.89
2023-02-22T04:43:24.804Z,11.55
2023-02-22T04:45:51.358Z,11.90
2023-02-22T04:48:17.905Z,11.53
2023-02-22T04:50:44.408Z,11.67
2023-02-22T04:53:11.270Z,11.17
2023-02-22T04:55:37.730Z,11.48
2023-02-22T04:58:04.518Z,11.64
2023-02-22T05:00:31.063Z,12.45
2023-02-22T05:02:57.595Z,11.87
2023-02-22T05:05:24.294Z,11.38
2023-02-22T05:07:50.936Z,11.34
2023-02-22T05:10:17.476Z,11.91
2023-02-22T05:12:44.019Z,12.45
2023-02-22T05:15:19.024Z,12.73
2023-02-22T05:17:46.054Z,12.39
2023-02-22T05:20:33.532Z,12.04
2023-02-22T05:23:03.757Z,12.13
2023-02-22T05:25:30.429Z,12.33
2023-02-22T05:28:02.143Z,12.44
2023-02-22T05:30:36.030Z,13.22
2023-02-22T05:33:02.584Z,12.73
2023-02-22T05:35:29.230Z,13.26
2023-02-22T05:37:56.296Z,12.54
2023-02-22T05:40:26.352Z,12.80
2023-02-22T05:42:54.155Z,12.78
2023-02-22T05:45:23.882Z,13.71
2023-02-22T05:47:51.590Z,13.98
2023-02-22T05:50:19.495Z,14.73
2023-02-22T05:52:47.059Z,14.69
2023-02-22T05:55:16.248Z,14.39
2023-02-22T05:57:42.972Z,14.75
2023-02-22T06:00:10.921Z,15.49
2023-02-22T06:02:37.474Z,14.52
2023-02-22T06:05:04.044Z,15.20
2023-02-22T06:07:30.516Z,15.16
2023-02-22T06:09:57.063Z,15.11
2023-02-22T06:12:23.568Z,15.17
2023-02-22T06:14:50.069Z,15.24
2023-02-22T06:17:16.624Z,15.60
2023-02-22T06:19:43.173Z,16.10
2023-02-22T06:22:18.668Z,16.38
2023-02-22T06:24:45.222Z,16.05
2023-02-22T06:27:12.333Z,16.47
2023-02-22T06:29:38.864Z,16.82
2023-02-22T06:32:05.522Z,16.68
2023-02-22T06:34:32.200Z,17.23
2023-02-22T06:37:00.067Z,17.58
2023-02-22T06:39:26.725Z,18.03
2023-02-22T06:41:53.522Z,18.34
2023-02-22T06:44:20.008Z,19.26
2023-02-22T06:46:48.640Z,19.85
2023-02-22T06:49:15.249Z,19.95
2023-02-22T06:51:41.821Z,19.90
2023-02-22T06:54:08.336Z,20.31
2023-02-22T06:56:34.893Z,20.72
2023-02-22T06:59:02.705Z,20.45
2023-02-22T07:01:30.333Z,20.30
2023-02-22T07:03:57.027Z,20.49
2023-02-22T07:06:23.520Z,19.76
2023-02-22T07:08:50.060Z,20.17
2023-02-22T07:11:17.476Z,20.70
2023-02-22T07:13:44.242Z,21.39
2023-02-22T07:16:11.033Z,21.67
2023-02-22T07:18:37.587Z,21.13
2023-02-22T07:21:04.437Z,21.60
2023-02-22T07:23:31.177Z,21.29
2023-02-22T07:26:00.150Z,21.38
2023-02-22T07:28:26.756Z,21.35
2023-02-22T07:30:53.280Z,21.47
2023-02-22T07:33:20.087Z,22.02
2023-02-22T07:35:48.843Z,23.60
2023-02-22T07:38:18.547Z,23.59
2023-02-22T07:40:45.743Z,23.66
2023-02-22T07:43:26.996Z,23.41
2023-02-22T07:45:56.165Z,24.40
2023-02-22T07:48:25.462Z,24.81
2023-02-22T07:50:52.035Z,24.62
2023-02-22T07:53:28.848Z,24.62
2023-02-22T07:55:57.020Z,25.78
2023-02-22T07:58:26.148Z,26.87
2023-02-22T08:00:53.020Z,27.22
2023-02-22T08:03:22.288Z,26.04
2023-02-22T08:05:51.612Z,25.87
2023-02-22T08:08:29.450Z,25.93
2023-02-22T08:10:57.844Z,25.82
2023-02-22T08:13:24.426Z,26.04
2023-02-22T08:15:53.078Z,26.47
2023-02-22T08:18:21.219Z,26.19
2023-02-22T08:20:50.143Z,25.89
2023-02-22T08:23:18.313Z,26.38
2023-02-22T08:25:44.941Z,25.65
2023-02-22T08:28:15.505Z,26.35
2023-02-22T08:30:43.252Z,27.94
2023-02-22T08:33:11.752Z,27.71
2023-02-22T08:35:38.343Z,27.42
2023-02-22T08:38:07.397Z,27.03
2023-02-22T08:40:36.953Z,28.06
2023-02-22T08:43:04.035Z,28.85
2023-02-22T08:45:30.704Z,26.23
2023-02-22T08:47:58.284Z,27.30
2023-02-22T08:50:30.569Z,26.34
2023-02-22T08:53:00.052Z,26.59
2023-02-22T08:55:30.430Z,26.46
2023-02-22T08:57:56.916Z,26.81
2023-02-22T09:00:23.897Z,26.56
2023-02-22T09:02:51.194Z,25.98
2023-02-22T09:05:18.115Z,27.20
2023-02-22T09:07:55.783Z,27.60
2023-02-22T09:10:27.045Z,26.61
2023-02-22T09:12:54.945Z,26.73
2023-02-22T09:15:22.939Z,27.27
2023-02-22T09:17:49.438Z,26.88
2023-02-22T09:20:18.584Z,26.35
2023-02-22T09:22:45.898Z,27.43
2023-02-22T09:25:17.157Z,27.17
2023-02-22T09:27:46.657Z,27.49
2023-02-22T09:30:32.160Z,28.01
2023-02-22T09:33:05.426Z,27.53
2023-02-22T09:35:32.251Z,26.76
2023-02-22T09:38:01.104Z,28.53
2023-02-22T09:40:35.201Z,27.19
2023-02-22T09:43:08.775Z,26.07
2023-02-22T09:46:08.467Z,26.50
2023-02-22T09:48:51.615Z,26.73
2023-02-22T09:51:21.930Z,26.33
2023-02-22T09:53:51.325Z,26.90
2023-02-22T09:56:20.717Z,26.54
2023-02-22T09:58:51.413Z,26.43
2023-02-22T10:01:43.247Z,26.12
2023-02-22T10:04:09.712Z,26.10
2023-02-22T10:06:40.361Z,29.70
2023-02-22T10:09:06.910Z,33.58
2023-02-22T10:12:05.883Z,28.48
2023-02-22T10:14:53.524Z,26.90
2023-02-22T10:18:20.481Z,26.78
2023-02-22T10:21:16.014Z,27.15
2023-02-22T10:23:57.570Z,26.47
2023-02-22T10:26:28.413Z,26.16
2023-02-22T10:29:04.223Z,26.72
2023-02-22T10:31:43.094Z,26.99
2023-02-22T10:34:29.517Z,26.96
2023-02-22T10:37:31.210Z,26.52
2023-02-22T10:40:18.067Z,26.60
2023-02-22T10:42:44.701Z,26.72
2023-02-22T10:45:24.574Z,27.00
2023-02-22T10:47:56.728Z,26.57
2023-02-22T10:50:23.325Z,26.24
2023-02-22T10:52:49.800Z,26.19
2023-02-22T10:55:16.487Z,26.44
2023-02-22T10:57:50.578Z,27.16
2023-02-22T11:00:21.216Z,27.89
2023-02-22T11:02:58.080Z,27.30
2023-02-22T11:05:30.905Z,27.61
2023-02-22T11:08:31.873Z,27.67
2023-02-22T11:11:20.387Z,26.94
2023-02-22T11:13:57.544Z,26.29
2023-02-22T11:16:31.322Z,25.82
2023-02-22T11:19:22.036Z,26.07
2023-02-22T11:21:56.159Z,26.40
2023-02-22T11:24:25.431Z,26.99
2023-02-22T11:26:57.935Z,26.31
2023-02-22T11:29:39.521Z,26.11
2023-02-22T11:32:21.476Z,27.53
2023-02-22T11:34:50.876Z,26.59
2023-02-22T11:37:31.392Z,27.30
2023-02-22T11:40:07.161Z,26.75
2023-02-22T11:42:33.791Z,26.49
2023-02-22T11:45:14.650Z,25.74
2023-02-22T11:48:03.195Z,26.09
2023-02-22T11:50:52.597Z,25.88
2023-02-22T11:53:45.010Z,26.28
2023-02-22T11:56:39.926Z,26.22
2023-02-22T11:59:35.780Z,26.57
2023-02-22T12:02:30.988Z,26.28
2023-02-22T12:05:24.002Z,26.72
2023-02-22T12:08:21.960Z,26.71
2023-02-22T12:11:14.096Z,26.43
2023-02-22T12:13:52.538Z,26.35
2023-02-22T12:16:44.920Z,26.13
2023-02-22T12:19:26.443Z,25.36
2023-02-22T12:21:58.206Z,25.37
2023-02-22T12:24:39.340Z,25.76
2023-02-22T12:27:15.420Z,27.00
2023-02-22T12:30:15.051Z,26.36
2023-02-22T12:32:53.643Z,24.99
2023-02-22T12:35:28.263Z,25.16
2023-02-22T12:38:14.414Z,24.89
2023-02-22T12:41:00.933Z,25.15
2023-02-22T12:43:39.110Z,25.18
2023-02-22T12:46:32.096Z,24.92
2023-02-22T12:49:25.873Z,25.19
2023-02-22T12:52:21.549Z,25.51
2023-02-22T12:54:55.874Z,26.66
2023-02-22T12:57:53.717Z,26.10
2023-02-22T13:00:32.922Z,26.02
2023-02-22T13:03:29.052Z,26.95
2023-02-22T13:06:08.810Z,25.84
2023-02-22T13:09:00.502Z,26.29
2023-02-22T13:11:40.437Z,26.53
2023-02-22T13:14:26.838Z,26.79
2023-02-22T13:17:06.579Z,26.40
2023-02-22T13:19:45.234Z,26.84
2023-02-22T13:22:26.631Z,26.71
2023-02-22T13:25:11.633Z,27.62
2023-02-22T13:28:15.215Z,26.67
2023-02-22T13:30:53.684Z,26.93
2023-02-22T13:33:49.115Z,27.04
2023-02-22T13:36:35.516Z,27.06
2023-02-22T13:39:18.566Z,26.53
2023-02-22T13:42:05.385Z,27.57
2023-02-22T13:45:00.095Z,26.54
2023-02-22T13:48:00.573Z,26.48
2023-02-22T13:50:48.532Z,25.38
2023-02-22T13:53:27.279Z,26.80
2023-02-22T13:55:58.303Z,26.18
2023-02-22T13:58:25.326Z,25.54
2023-02-22T14:00:55.646Z,24.25
2023-02-22T14:03:22.210Z,23.68
2023-02-22T14:05:51.962Z,23.42
2023-02-22T14:08:18.442Z,24.03
2023-02-22T14:10:53.764Z,23.74
2023-02-22T14:13:22.872Z,24.27
2023-02-22T14:15:58.623Z,24.52
2023-02-22T14:18:34.704Z,23.46
2023-02-22T14:21:10.493Z,23.60
2023-02-22T14:24:05.826Z,25.36
2023-02-22T14:26:36.162Z,24.10
2023-02-22T14:29:17.886Z,23.49
2023-02-22T14:31:44.385Z,22.61
2023-02-22T14:34:12.270Z,23.87
2023-02-22T14:36:51.487Z,25.98
2023-02-22T14:39:50.947Z,23.37
2023-02-22T14:42:33.156Z,22.28
2023-02-22T14:45:05.729Z,21.41
2023-02-22T14:47:44.304Z,22.03
2023-02-22T14:50:46.322Z,22.09
2023-02-22T14:53:15.548Z,20.90
2023-02-22T14:55:47.469Z,22.07
2023-02-22T14:58:20.479Z,21.67
2023-02-22T15:00:52.965Z,22.19
2023-02-22T15:03:29.979Z,22.08
2023-02-22T15:05:56.528Z,21.78
2023-02-22T15:08:23.109Z,23.28
2023-02-22T15:10:51.622Z,22.96
2023-02-22T15:13:26.619Z,22.93
2023-02-22T15:16:05.425Z,22.05
2023-02-22T15:18:40.722Z,21.39
2023-02-22T15:21:13.585Z,22.13
2023-02-22T15:24:02.677Z,21.53
2023-02-22T15:26:49.014Z,22.54
2023-02-22T15:29:35.992Z,23.66
2023-02-22T15:32:02.522Z,21.84
2023-02-22T15:34:31.762Z,22.98
2023-02-22T15:37:19.763Z,23.22
2023-02-22T15:39:46.257Z,22.96
2023-02-22T15:42:15.986Z,21.93
2023-02-22T15:44:43.679Z,23.86
2023-02-22T15:47:19.750Z,24.33
2023-02-22T15:50:06.422Z,23.86
2023-02-22T15:52:32.937Z,24.05
2023-02-22T15:54:59.821Z,23.99
2023-02-22T15:57:26.403Z,23.18
2023-02-22T15:59:57.074Z,22.90
2023-02-22T16:02:38.969Z,23.61
2023-02-22T16:05:11.732Z,23.05
2023-02-22T16:07:46.225Z,23.20
2023-02-22T16:10:29.364Z,23.85
2023-02-22T16:13:07.292Z,26.39
2023-02-22T16:15:34.845Z,26.14
2023-02-22T16:18:32.470Z,26.28
2023-02-22T16:21:05.564Z,26.79
2023-02-22T16:23:47.367Z,26.92
2023-02-22T16:26:32.346Z,26.36
2023-02-22T16:29:05.755Z,25.73
2023-02-22T16:31:38.264Z,25.72
2023-02-22T16:34:08.644Z,25.81
2023-02-22T16:36:42.018Z,25.73
2023-02-22T16:39:22.142Z,24.87
2023-02-22T16:41:51.128Z,24.30
2023-02-22T16:44:17.621Z,25.05
2023-02-22T16:46:44.531Z,24.99
2023-02-22T16:49:12.971Z,23.45
2023-02-22T16:51:49.135Z,23.10
2023-02-22T16:54:30.012Z,23.45
2023-02-22T16:56:58.210Z,23.86
2023-02-22T16:59:24.761Z,23.37
2023-02-22T17:01:51.279Z,22.57
2023-02-22T17:04:22.500Z,21.90
2023-02-22T17:06:49.010Z,21.47
2023-02-22T17:09:15.818Z,22.24
2023-02-22T17:11:43.510Z,21.98
2023-02-22T17:14:17.684Z,21.87
2023-02-22T17:16:44.203Z,22.73
2023-02-22T17:19:17.229Z,22.98
2023-02-22T17:21:44.018Z,22.03
2023-02-22T17:24:17.016Z,22.78
2023-02-22T17:26:43.489Z,21.74
2023-02-22T17:29:10.026Z,21.86
2023-02-22T17:31:36.643Z,21.56
2023-02-22T17:34:05.544Z,22.59
2023-02-22T17:36:34.172Z,23.13
2023-02-22T17:39:00.700Z,22.80
2023-02-22T17:41:27.217Z,22.78
2023-02-22T17:43:53.712Z,23.58
2023-02-22T17:46:20.853Z,22.43
2023-02-22T17:48:47.416Z,22.92
2023-02-22T17:51:14.233Z,22.36
2023-02-22T17:53:40.964Z,21.65
2023-02-22T17:56:16.681Z,22.07
2023-02-22T17:58:43.832Z,22.78
2023-02-22T18:01:27.101Z,22.00
2023-02-22T18:03:56.042Z,22.41
2023-02-22T18:06:25.361Z,23.12
2023-02-22T18:08:54.733Z,24.21
2023-02-22T18:11:24.046Z,25.21
2023-02-22T18:13:50.544Z,23.92
2023-02-22T18:16:17.494Z,23.90
2023-02-22T18:18:44.230Z,23.48
2023-02-22T18:21:13.843Z,22.95
2023-02-22T18:23:40.430Z,23.46
2023-02-22T18:26:11.706Z,24.03
2023-02-22T18:28:38.723Z,24.52
2023-02-22T18:31:10.068Z,24.01
2023-02-22T18:33:36.850Z,25.11
2023-02-22T18:36:03.629Z,25.78
2023-02-22T18:38:30.115Z,26.36
2023-02-22T18:41:03.567Z,24.77
2023-02-22T18:43:30.881Z,24.50
2023-02-22T18:46:18.640Z,24.65
2023-02-22T18:48:51.469Z,25.03
2023-02-22T18:51:17.972Z,24.78
2023-02-22T18:53:47.220Z,24.14
2023-02-22T18:56:17.264Z,25.50
2023-02-22T18:58:44.014Z,25.19
2023-02-22T19:01:18.878Z,26.40
2023-02-22T19:03:46.007Z,25.87
2023-02-22T19:06:14.125Z,25.95
2023-02-22T19:08:44.999Z,25.30
2023-02-22T19:11:14.820Z,25.21
2023-02-22T19:13:41.379Z,24.37
2023-02-22T19:16:08.092Z,24.89
2023-02-22T19:18:34.703Z,25.27
2023-02-22T19:21:04.717Z,25.08
2023-02-22T19:23:34.299Z,25.23
2023-02-22T19:26:03.672Z,24.78
2023-02-22T19:28:30.505Z,25.03
2023-02-22T19:30:57.058Z,25.62
2023-02-22T19:33:23.571Z,26.60
2023-02-22T19:35:50.074Z,26.33
2023-02-22T19:38:16.729Z,26.75
2023-02-22T19:40:44.317Z,26.38
2023-02-22T19:43:10.833Z,27.33
2023-02-22T19:45:39.620Z,27.20
2023-02-22T19:48:06.205Z,26.83
2023-02-22T19:50:32.834Z,28.59
2023-02-22T19:52:59.338Z,27.00
2023-02-22T19:55:25.895Z,26.64
2023-02-22T19:57:52.438Z,27.40
2023-02-22T20:00:18.982Z,28.02
2023-02-22T20:02:45.516Z,28.29
2023-02-22T20:05:12.047Z,27.58
2023-02-22T20:07:39.032Z,26.66
2023-02-22T20:10:06.348Z,26.87
2023-02-22T20:12:32.957Z,26.89
2023-02-22T20:15:01.387Z,27.05
2023-02-22T20:17:27.892Z,28.26
2023-02-22T20:19:54.434Z,28.18
2023-02-22T20:22:22.244Z,28.08
2023-02-22T20:24:48.832Z,28.67
2023-02-22T20:27:15.861Z,29.22
2023-02-22T20:29:42.459Z,28.24
2023-02-22T20:32:12.940Z,28.78
2023-02-22T20:34:39.547Z,33.95
2023-02-22T20:37:06.109Z,33.18
2023-02-22T20:39:32.588Z,30.40
2023-02-22T20:41:59.143Z,29.28
2023-02-22T20:44:25.659Z,29.26
2023-02-22T20:46:52.122Z,29.84
2023-02-22T20:49:19.748Z,31.67
2023-02-22T20:51:47.984Z,31.52
2023-02-22T20:54:18.070Z,33.07
2023-02-22T20:56:46.609Z,34.20
2023-02-22T20:59:16.138Z,32.95
2023-02-22T21:01:43.355Z,31.99
2023-02-22T21:04:11.329Z,30.01
2023-02-22T21:06:38.520Z,29.43
2023-02-22T21:09:09.818Z,29.49
2023-02-22T21:11:36.312Z,29.99
2023-02-22T21:14:03.511Z,30.93
2023-02-22T21:16:33.456Z,30.97
2023-02-22T21:19:02.224Z,30.52
2023-02-22T21:21:29.504Z,30.39
2023-02-22T21:23:58.117Z,30.78
2023-02-22T21:26:26.457Z,29.91
2023-02-22T21:28:58.213Z,30.42
2023-02-22T21:31:25.371Z,30.44
2023-02-22T21:33:55.036Z,30.51
2023-02-22T21:36:23.273Z,30.96
2023-02-22T21:38:56.490Z,30.81
2023-02-22T21:41:28.857Z,30.69
2023-02-22T21:43:58.248Z,30.42
2023-02-22T21:46:27.357Z,30.18
2023-02-22T21:48:54.159Z,31.08
2023-02-22T21:51:24.749Z,31.80
2023-02-22T21:53:53.932Z,31.49
2023-02-22T21:56:23.926Z,31.20
2023-02-22T21:58:55.819Z,30.50
2023-02-22T22:01:22.385Z,30.01
2023-02-22T22:03:48.922Z,28.98
2023-02-22T22:06:15.432Z,29.17
2023-02-22T22:08:42.722Z,28.12
2023-02-22T22:11:11.173Z,28.54
2023-02-22T22:13:40.089Z,28.25
2023-02-22T22:16:18.459Z,28.41
2023-02-22T22:18:45.931Z,28.85
2023-02-22T22:21:21.714Z,29.63
2023-02-22T22:23:50.028Z,28.80
2023-02-22T22:26:18.922Z,27.84
2023-02-22T22:28:49.042Z,27.85
2023-02-22T22:31:17.992Z,27.81
2023-02-22T22:33:45.590Z,28.67
2023-02-22T22:36:14.302Z,29.44
2023-02-22T22:38:40.792Z,29.99
2023-02-22T22:41:10.481Z,29.20
2023-02-22T22:43:37.337Z,29.53
2023-02-22T22:46:07.053Z,29.99
2023-02-22T22:48:36.570Z,29.48
2023-02-22T22:51:09.566Z,28.10
2023-02-22T22:53:39.279Z,28.55
2023-02-22T22:56:12.421Z,28.84
2023-02-22T22:58:38.897Z,29.16
2023-02-22T23:01:05.657Z,29.10
2023-02-22T23:03:33.802Z,29.27
2023-02-22T23:06:04.983Z,29.63
2023-02-22T23:08:32.156Z,28.33
2023-02-22T23:11:05.995Z,28.48
2023-02-22T23:13:32.508Z,29.23
2023-02-22T23:15:59.047Z,28.95
2023-02-22T23:18:25.535Z,29.06
2023-02-22T23:20:52.049Z,28.29
2023-02-22T23:23:18.549Z,27.43
2023-02-22T23:25:45.092Z,30.02
2023-02-22T23:28:11.653Z,29.33
2023-02-22T23:30:41.582Z,28.87
2023-02-22T23:33:08.282Z,28.47
2023-02-22T23:35:35.726Z,27.05
2023-02-22T23:38:04.735Z,27.67
2023-02-22T23:40:31.208Z,26.44
2023-02-22T23:42:57.706Z,26.72
2023-02-22T23:45:24.706Z,26.64
2023-02-22T23:47:57.748Z,27.21
2023-02-22T23:50:26.409Z,27.13
2023-02-22T23:52:58.217Z,26.19
2023-02-22T23:55:27.640Z,26.54
2023-02-22T23:57:54.898Z,27.30
